sensor_id;sensor_type;location;lat;lon;timestamp;P1;durP1;ratioP1;P2;durP2;ratioP2
31004;SDS011;17676;52.254;4.490;2022-11-15T00:00:03;99.65;;;45.13;;
31004;SDS011;17676;52.254;4.490;2022-11-15T00:02:29;87.15;;;43.42;;
31004;SDS011;17676;52.254;4.490;2022-11-15T00:04:55;90.30;;;42.38;;
31004;SDS011;17676;52.254;4.490;2022-11-15T00:07:20;93.28;;;43.70;;
31004;SDS011;17676;52.254;4.490;2022-11-15T00:09:45;97.78;;;44.58;;
31004;SDS011;17676;52.254;4.490;2022-11-15T00:12:11;101.10;;;45.83;;
31004;SDS011;17676;52.254;4.490;2022-11-15T00:14:36;105.57;;;47.58;;
31004;SDS011;17676;52.254;4.490;2022-11-15T00:17:02;97.95;;;46.08;;
31004;SDS011;17676;52.254;4.490;2022-11-15T00:19:27;105.13;;;46.20;;
31004;SDS011;17676;52.254;4.490;2022-11-15T00:21:52;105.03;;;45.28;;
31004;SDS011;17676;52.254;4.490;2022-11-15T00:24:18;110.40;;;46.97;;
31004;SDS011;17676;52.254;4.490;2022-11-15T00:26:43;103.35;;;44.30;;
31004;SDS011;17676;52.254;4.490;2022-11-15T00:29:08;113.43;;;47.38;;
31004;SDS011;17676;52.254;4.490;2022-11-15T00:31:34;113.75;;;48.63;;
31004;SDS011;17676;52.254;4.490;2022-11-15T00:33:59;133.02;;;50.03;;
31004;SDS011;17676;52.254;4.490;2022-11-15T00:36:25;110.35;;;48.53;;
31004;SDS011;17676;52.254;4.490;2022-11-15T00:38:50;116.43;;;45.33;;
31004;SDS011;17676;52.254;4.490;2022-11-15T00:41:15;121.07;;;46.03;;
31004;SDS011;17676;52.254;4.490;2022-11-15T00:43:41;133.90;;;49.13;;
31004;SDS011;17676;52.254;4.490;2022-11-15T00:46:08;141.50;;;48.08;;
31004;SDS011;17676;52.254;4.490;2022-11-15T00:48:34;125.50;;;47.15;;
31004;SDS011;17676;52.254;4.490;2022-11-15T00:50:59;121.30;;;46.15;;
31004;SDS011;17676;52.254;4.490;2022-11-15T00:53:25;151.73;;;50.70;;
31004;SDS011;17676;52.254;4.490;2022-11-15T00:55:50;137.05;;;49.60;;
31004;SDS011;17676;52.254;4.490;2022-11-15T00:58:15;135.85;;;49.67;;
31004;SDS011;17676;52.254;4.490;2022-11-15T01:00:41;151.75;;;50.85;;
31004;SDS011;17676;52.254;4.490;2022-11-15T01:03:06;128.55;;;48.42;;
31004;SDS011;17676;52.254;4.490;2022-11-15T01:05:32;122.78;;;45.60;;
31004;SDS011;17676;52.254;4.490;2022-11-15T01:07:57;143.20;;;49.90;;
31004;SDS011;17676;52.254;4.490;2022-11-15T01:10:22;134.05;;;49.47;;
31004;SDS011;17676;52.254;4.490;2022-11-15T01:12:48;132.57;;;47.97;;
31004;SDS011;17676;52.254;4.490;2022-11-15T01:15:13;136.80;;;48.38;;
31004;SDS011;17676;52.254;4.490;2022-11-15T01:17:39;133.98;;;44.92;;
31004;SDS011;17676;52.254;4.490;2022-11-15T01:20:04;160.05;;;49.63;;
31004;SDS011;17676;52.254;4.490;2022-11-15T01:22:29;150.93;;;49.13;;
31004;SDS011;17676;52.254;4.490;2022-11-15T01:24:55;142.60;;;47.45;;
31004;SDS011;17676;52.254;4.490;2022-11-15T01:27:20;154.95;;;51.05;;
31004;SDS011;17676;52.254;4.490;2022-11-15T01:32:49;148.15;;;47.80;;
31004;SDS011;17676;52.254;4.490;2022-11-15T01:35:15;138.07;;;45.72;;
31004;SDS011;17676;52.254;4.490;2022-11-15T01:37:40;169.90;;;51.00;;
31004;SDS011;17676;52.254;4.490;2022-11-15T01:40:06;161.82;;;51.47;;
31004;SDS011;17676;52.254;4.490;2022-11-15T01:42:31;158.23;;;48.63;;
31004;SDS011;17676;52.254;4.490;2022-11-15T01:44:56;160.93;;;50.58;;
31004;SDS011;17676;52.254;4.490;2022-11-15T01:47:28;177.65;;;50.45;;
31004;SDS011;17676;52.254;4.490;2022-11-15T01:49:58;164.63;;;51.72;;
31004;SDS011;17676;52.254;4.490;2022-11-15T01:52:25;164.18;;;47.67;;
31004;SDS011;17676;52.254;4.490;2022-11-15T01:55:02;188.82;;;53.35;;
31004;SDS011;17676;52.254;4.490;2022-11-15T01:57:28;155.30;;;51.85;;
31004;SDS011;17676;52.254;4.490;2022-11-15T01:59:53;181.63;;;53.25;;
31004;SDS011;17676;52.254;4.490;2022-11-15T02:02:18;180.30;;;54.53;;
31004;SDS011;17676;52.254;4.490;2022-11-15T02:04:47;169.80;;;50.75;;
31004;SDS011;17676;52.254;4.490;2022-11-15T02:07:16;205.05;;;54.72;;
31004;SDS011;17676;52.254;4.490;2022-11-15T02:09:43;183.73;;;53.08;;
31004;SDS011;17676;52.254;4.490;2022-11-15T02:12:09;206.82;;;52.97;;
31004;SDS011;17676;52.254;4.490;2022-11-15T02:14:35;182.35;;;55.05;;
31004;SDS011;17676;52.254;4.490;2022-11-15T02:17:05;158.48;;;47.97;;
31004;SDS011;17676;52.254;4.490;2022-11-15T02:22:30;172.43;;;51.50;;
31004;SDS011;17676;52.254;4.490;2022-11-15T02:30:19;173.63;;;51.13;;
31004;SDS011;17676;52.254;4.490;2022-11-15T02:32:45;206.13;;;56.10;;
31004;SDS011;17676;52.254;4.490;2022-11-15T02:37:57;264.52;;;58.50;;
31004;SDS011;17676;52.254;4.490;2022-11-15T02:43:00;247.90;;;57.95;;
31004;SDS011;17676;52.254;4.490;2022-11-15T02:46:02;190.95;;;47.03;;
31004;SDS011;17676;52.254;4.490;2022-11-15T02:48:29;190.57;;;56.58;;
31004;SDS011;17676;52.254;4.490;2022-11-15T02:50:55;187.13;;;51.03;;
31004;SDS011;17676;52.254;4.490;2022-11-15T02:53:24;184.68;;;51.72;;
31004;SDS011;17676;52.254;4.490;2022-11-15T02:55:49;251.75;;;58.47;;
31004;SDS011;17676;52.254;4.490;2022-11-15T02:58:23;242.13;;;59.70;;
31004;SDS011;17676;52.254;4.490;2022-11-15T03:11:21;269.00;;;60.42;;
31004;SDS011;17676;52.254;4.490;2022-11-15T03:13:51;260.60;;;62.63;;
31004;SDS011;17676;52.254;4.490;2022-11-15T03:16:28;217.02;;;55.20;;
31004;SDS011;17676;52.254;4.490;2022-11-15T03:19:04;203.13;;;60.28;;
31004;SDS011;17676;52.254;4.490;2022-11-15T03:21:31;227.45;;;60.08;;
31004;SDS011;17676;52.254;4.490;2022-11-15T03:23:58;252.50;;;62.15;;
31004;SDS011;17676;52.254;4.490;2022-11-15T03:26:26;227.88;;;60.22;;
31004;SDS011;17676;52.254;4.490;2022-11-15T03:28:55;214.13;;;61.80;;
31004;SDS011;17676;52.254;4.490;2022-11-15T03:31:21;211.07;;;61.10;;
31004;SDS011;17676;52.254;4.490;2022-11-15T03:34:06;208.80;;;59.72;;
31004;SDS011;17676;52.254;4.490;2022-11-15T03:36:34;177.00;;;60.70;;
31004;SDS011;17676;52.254;4.490;2022-11-15T03:39:00;183.93;;;59.97;;
31004;SDS011;17676;52.254;4.490;2022-11-15T03:46:37;184.02;;;61.20;;
31004;SDS011;17676;52.254;4.490;2022-11-15T03:49:07;180.65;;;59.88;;
31004;SDS011;17676;52.254;4.490;2022-11-15T03:51:37;182.82;;;60.90;;
31004;SDS011;17676;52.254;4.490;2022-11-15T03:54:04;168.10;;;57.97;;
31004;SDS011;17676;52.254;4.490;2022-11-15T03:56:29;181.65;;;60.72;;
31004;SDS011;17676;52.254;4.490;2022-11-15T03:58:54;164.63;;;60.08;;
31004;SDS011;17676;52.254;4.490;2022-11-15T04:01:20;162.98;;;58.03;;
31004;SDS011;17676;52.254;4.490;2022-11-15T04:03:45;174.10;;;60.47;;
31004;SDS011;17676;52.254;4.490;2022-11-15T04:06:10;161.10;;;59.35;;
31004;SDS011;17676;52.254;4.490;2022-11-15T04:08:36;163.75;;;59.28;;
31004;SDS011;17676;52.254;4.490;2022-11-15T04:11:01;152.95;;;59.08;;
31004;SDS011;17676;52.254;4.490;2022-11-15T04:13:26;159.60;;;59.53;;
31004;SDS011;17676;52.254;4.490;2022-11-15T04:15:52;153.15;;;57.80;;
31004;SDS011;17676;52.254;4.490;2022-11-15T04:18:17;149.30;;;58.90;;
31004;SDS011;17676;52.254;4.490;2022-11-15T04:20:42;148.60;;;57.92;;
31004;SDS011;17676;52.254;4.490;2022-11-15T04:23:26;138.85;;;56.95;;
31004;SDS011;17676;52.254;4.490;2022-11-15T04:26:11;132.52;;;54.58;;
31004;SDS011;17676;52.254;4.490;2022-11-15T04:28:37;134.50;;;55.75;;
31004;SDS011;17676;52.254;4.490;2022-11-15T04:31:25;134.63;;;53.03;;
31004;SDS011;17676;52.254;4.490;2022-11-15T04:33:51;128.35;;;51.75;;
31004;SDS011;17676;52.254;4.490;2022-11-15T04:36:16;142.57;;;55.65;;
31004;SDS011;17676;52.254;4.490;2022-11-15T04:39:00;134.18;;;53.83;;
31004;SDS011;17676;52.254;4.490;2022-11-15T04:41:25;127.72;;;53.42;;
31004;SDS011;17676;52.254;4.490;2022-11-15T04:43:51;127.35;;;54.15;;
31004;SDS011;17676;52.254;4.490;2022-11-15T04:46:16;128.75;;;54.00;;
31004;SDS011;17676;52.254;4.490;2022-11-15T04:48:44;130.15;;;56.30;;
31004;SDS011;17676;52.254;4.490;2022-11-15T04:51:10;117.22;;;53.25;;
31004;SDS011;17676;52.254;4.490;2022-11-15T04:53:35;124.30;;;53.78;;
31004;SDS011;17676;52.254;4.490;2022-11-15T04:56:00;128.07;;;54.05;;
31004;SDS011;17676;52.254;4.490;2022-11-15T04:58:26;126.90;;;54.42;;
31004;SDS011;17676;52.254;4.490;2022-11-15T05:00:51;139.40;;;54.97;;
31004;SDS011;17676;52.254;4.490;2022-11-15T05:03:16;121.38;;;52.67;;
31004;SDS011;17676;52.254;4.490;2022-11-15T05:06:00;123.45;;;52.63;;
31004;SDS011;17676;52.254;4.490;2022-11-15T05:08:25;116.70;;;51.25;;
31004;SDS011;17676;52.254;4.490;2022-11-15T05:10:50;111.43;;;51.10;;
31004;SDS011;17676;52.254;4.490;2022-11-15T05:13:16;109.60;;;49.20;;
31004;SDS011;17676;52.254;4.490;2022-11-15T05:15:41;104.72;;;47.15;;
31004;SDS011;17676;52.254;4.490;2022-11-15T05:18:07;103.60;;;46.63;;
31004;SDS011;17676;52.254;4.490;2022-11-15T05:20:32;102.47;;;46.78;;
31004;SDS011;17676;52.254;4.490;2022-11-15T05:22:58;98.68;;;45.63;;
31004;SDS011;17676;52.254;4.490;2022-11-15T05:25:23;99.57;;;43.83;;
31004;SDS011;17676;52.254;4.490;2022-11-15T05:27:48;84.53;;;42.17;;
31004;SDS011;17676;52.254;4.490;2022-11-15T05:30:14;76.25;;;39.35;;
31004;SDS011;17676;52.254;4.490;2022-11-15T05:32:40;73.28;;;36.30;;
31004;SDS011;17676;52.254;4.490;2022-11-15T05:35:05;69.57;;;33.83;;
31004;SDS011;17676;52.254;4.490;2022-11-15T05:37:32;57.97;;;32.10;;
31004;SDS011;17676;52.254;4.490;2022-11-15T05:39:57;52.58;;;26.88;;
31004;SDS011;17676;52.254;4.490;2022-11-15T05:42:22;45.72;;;24.77;;
31004;SDS011;17676;52.254;4.490;2022-11-15T05:44:49;49.38;;;26.50;;
31004;SDS011;17676;52.254;4.490;2022-11-15T05:47:19;49.33;;;26.65;;
31004;SDS011;17676;52.254;4.490;2022-11-15T05:49:46;43.67;;;25.95;;
31004;SDS011;17676;52.254;4.490;2022-11-15T05:52:13;44.33;;;24.98;;
31004;SDS011;17676;52.254;4.490;2022-11-15T05:54:40;42.00;;;23.20;;
31004;SDS011;17676;52.254;4.490;2022-11-15T05:57:06;44.65;;;23.45;;
31004;SDS011;17676;52.254;4.490;2022-11-15T05:59:31;41.60;;;24.48;;
31004;SDS011;17676;52.254;4.490;2022-11-15T06:01:57;39.08;;;22.95;;
31004;SDS011;17676;52.254;4.490;2022-11-15T06:04:22;33.88;;;22.45;;
31004;SDS011;17676;52.254;4.490;2022-11-15T06:06:47;37.08;;;22.38;;
31004;SDS011;17676;52.254;4.490;2022-11-15T06:09:13;35.22;;;21.70;;
31004;SDS011;17676;52.254;4.490;2022-11-15T06:11:38;35.80;;;22.05;;
31004;SDS011;17676;52.254;4.490;2022-11-15T06:14:04;34.00;;;19.85;;
31004;SDS011;17676;52.254;4.490;2022-11-15T06:16:29;30.42;;;20.33;;
31004;SDS011;17676;52.254;4.490;2022-11-15T06:18:54;29.95;;;18.20;;
31004;SDS011;17676;52.254;4.490;2022-11-15T06:21:19;36.20;;;21.52;;
31004;SDS011;17676;52.254;4.490;2022-11-15T06:23:45;32.15;;;19.60;;
31004;SDS011;17676;52.254;4.490;2022-11-15T06:26:10;34.85;;;19.40;;
31004;SDS011;17676;52.254;4.490;2022-11-15T06:28:38;34.28;;;19.83;;
31004;SDS011;17676;52.254;4.490;2022-11-15T06:31:03;24.83;;;16.85;;
31004;SDS011;17676;52.254;4.490;2022-11-15T06:33:29;33.33;;;16.88;;
31004;SDS011;17676;52.254;4.490;2022-11-15T06:35:55;27.40;;;15.60;;
31004;SDS011;17676;52.254;4.490;2022-11-15T06:38:20;23.02;;;14.40;;
31004;SDS011;17676;52.254;4.490;2022-11-15T06:40:45;28.27;;;15.07;;
31004;SDS011;17676;52.254;4.490;2022-11-15T06:43:10;23.77;;;13.93;;
31004;SDS011;17676;52.254;4.490;2022-11-15T06:45:36;25.80;;;14.65;;
31004;SDS011;17676;52.254;4.490;2022-11-15T06:48:01;29.77;;;13.38;;
31004;SDS011;17676;52.254;4.490;2022-11-15T06:50:26;25.60;;;12.95;;
31004;SDS011;17676;52.254;4.490;2022-11-15T06:52:52;29.73;;;12.40;;
31004;SDS011;17676;52.254;4.490;2022-11-15T06:55:17;22.80;;;12.18;;
31004;SDS011;17676;52.254;4.490;2022-11-15T06:57:46;17.85;;;9.48;;
31004;SDS011;17676;52.254;4.490;2022-11-15T07:00:11;20.73;;;9.65;;
31004;SDS011;17676;52.254;4.490;2022-11-15T07:02:36;17.27;;;9.75;;
31004;SDS011;17676;52.254;4.490;2022-11-15T07:05:02;14.43;;;8.43;;
31004;SDS011;17676;52.254;4.490;2022-11-15T07:07:27;18.55;;;8.13;;
31004;SDS011;17676;52.254;4.490;2022-11-15T07:09:52;23.60;;;9.00;;
31004;SDS011;17676;52.254;4.490;2022-11-15T07:12:18;13.80;;;8.00;;
31004;SDS011;17676;52.254;4.490;2022-11-15T07:14:43;16.08;;;7.60;;
31004;SDS011;17676;52.254;4.490;2022-11-15T07:17:08;16.95;;;7.35;;
31004;SDS011;17676;52.254;4.490;2022-11-15T07:19:34;16.92;;;7.43;;
31004;SDS011;17676;52.254;4.490;2022-11-15T07:21:59;14.30;;;7.25;;
31004;SDS011;17676;52.254;4.490;2022-11-15T07:24:25;20.20;;;8.52;;
31004;SDS011;17676;52.254;4.490;2022-11-15T07:26:50;19.33;;;8.68;;
31004;SDS011;17676;52.254;4.490;2022-11-15T07:29:15;20.63;;;8.00;;
31004;SDS011;17676;52.254;4.490;2022-11-15T07:31:40;16.30;;;8.77;;
31004;SDS011;17676;52.254;4.490;2022-11-15T07:34:06;17.48;;;8.27;;
31004;SDS011;17676;52.254;4.490;2022-11-15T07:36:31;15.73;;;9.50;;
31004;SDS011;17676;52.254;4.490;2022-11-15T07:38:56;15.90;;;8.88;;
31004;SDS011;17676;52.254;4.490;2022-11-15T07:41:22;19.23;;;8.27;;
31004;SDS011;17676;52.254;4.490;2022-11-15T07:43:47;15.30;;;8.10;;
31004;SDS011;17676;52.254;4.490;2022-11-15T07:46:18;11.23;;;7.53;;
31004;SDS011;17676;52.254;4.490;2022-11-15T07:48:43;14.32;;;7.65;;
31004;SDS011;17676;52.254;4.490;2022-11-15T07:51:12;15.02;;;8.32;;
31004;SDS011;17676;52.254;4.490;2022-11-15T07:53:42;23.02;;;8.25;;
31004;SDS011;17676;52.254;4.490;2022-11-15T07:56:07;17.92;;;9.43;;
31004;SDS011;17676;52.254;4.490;2022-11-15T07:58:33;17.88;;;8.35;;
31004;SDS011;17676;52.254;4.490;2022-11-15T08:01:01;21.15;;;8.80;;
31004;SDS011;17676;52.254;4.490;2022-11-15T08:03:27;18.02;;;8.25;;
31004;SDS011;17676;52.254;4.490;2022-11-15T08:05:52;19.48;;;9.27;;
31004;SDS011;17676;52.254;4.490;2022-11-15T08:08:17;16.88;;;8.52;;
31004;SDS011;17676;52.254;4.490;2022-11-15T08:10:43;16.25;;;8.73;;
31004;SDS011;17676;52.254;4.490;2022-11-15T08:13:09;14.25;;;8.07;;
31004;SDS011;17676;52.254;4.490;2022-11-15T08:15:35;14.30;;;8.20;;
31004;SDS011;17676;52.254;4.490;2022-11-15T08:18:02;11.75;;;6.50;;
31004;SDS011;17676;52.254;4.490;2022-11-15T08:20:28;19.30;;;6.97;;
31004;SDS011;17676;52.254;4.490;2022-11-15T08:22:59;9.93;;;5.05;;
31004;SDS011;17676;52.254;4.490;2022-11-15T08:25:25;10.85;;;4.82;;
31004;SDS011;17676;52.254;4.490;2022-11-15T08:27:54;8.98;;;5.47;;
31004;SDS011;17676;52.254;4.490;2022-11-15T08:30:20;11.07;;;5.80;;
31004;SDS011;17676;52.254;4.490;2022-11-15T08:32:46;14.18;;;5.45;;
31004;SDS011;17676;52.254;4.490;2022-11-15T08:35:11;15.75;;;5.68;;
31004;SDS011;17676;52.254;4.490;2022-11-15T08:37:36;13.68;;;5.05;;
31004;SDS011;17676;52.254;4.490;2022-11-15T08:40:02;9.02;;;5.10;;
31004;SDS011;17676;52.254;4.490;2022-11-15T08:42:27;9.65;;;4.40;;
31004;SDS011;17676;52.254;4.490;2022-11-15T08:44:53;10.45;;;5.50;;
31004;SDS011;17676;52.254;4.490;2022-11-15T08:47:18;10.30;;;5.10;;
31004;SDS011;17676;52.254;4.490;2022-11-15T08:49:44;13.98;;;5.10;;
31004;SDS011;17676;52.254;4.490;2022-11-15T08:52:09;11.05;;;4.28;;
31004;SDS011;17676;52.254;4.490;2022-11-15T08:54:34;9.50;;;4.40;;
31004;SDS011;17676;52.254;4.490;2022-11-15T08:57:00;10.55;;;4.68;;
31004;SDS011;17676;52.254;4.490;2022-11-15T08:59:25;13.23;;;4.50;;
31004;SDS011;17676;52.254;4.490;2022-11-15T09:01:50;13.88;;;4.35;;
31004;SDS011;17676;52.254;4.490;2022-11-15T09:04:16;12.45;;;4.95;;
31004;SDS011;17676;52.254;4.490;2022-11-15T09:06:41;7.25;;;5.05;;
31004;SDS011;17676;52.254;4.490;2022-11-15T09:09:07;10.07;;;5.82;;
31004;SDS011;17676;52.254;4.490;2022-11-15T09:11:32;8.60;;;5.82;;
31004;SDS011;17676;52.254;4.490;2022-11-15T09:13:57;12.05;;;5.43;;
31004;SDS011;17676;52.254;4.490;2022-11-15T09:16:23;14.18;;;6.57;;
31004;SDS011;17676;52.254;4.490;2022-11-15T09:18:50;13.63;;;6.53;;
31004;SDS011;17676;52.254;4.490;2022-11-15T09:21:16;10.60;;;6.80;;
31004;SDS011;17676;52.254;4.490;2022-11-15T09:23:41;9.68;;;6.43;;
31004;SDS011;17676;52.254;4.490;2022-11-15T09:26:07;14.25;;;6.82;;
31004;SDS011;17676;52.254;4.490;2022-11-15T09:28:33;6.45;;;5.32;;
31004;SDS011;17676;52.254;4.490;2022-11-15T09:30:59;9.88;;;5.70;;
31004;SDS011;17676;52.254;4.490;2022-11-15T09:33:24;11.07;;;5.60;;
31004;SDS011;17676;52.254;4.490;2022-11-15T09:35:50;8.25;;;5.40;;
31004;SDS011;17676;52.254;4.490;2022-11-15T09:38:15;8.73;;;5.63;;
31004;SDS011;17676;52.254;4.490;2022-11-15T09:40:40;12.90;;;5.47;;
31004;SDS011;17676;52.254;4.490;2022-11-15T09:46:01;8.55;;;4.45;;
31004;SDS011;17676;52.254;4.490;2022-11-15T09:50:54;5.65;;;2.80;;
31004;SDS011;17676;52.254;4.490;2022-11-15T10:01:10;9.90;;;3.85;;
31004;SDS011;17676;52.254;4.490;2022-11-15T10:03:37;8.30;;;3.80;;
31004;SDS011;17676;52.254;4.490;2022-11-15T10:06:09;9.02;;;3.55;;
31004;SDS011;17676;52.254;4.490;2022-11-15T10:08:57;7.82;;;3.53;;
31004;SDS011;17676;52.254;4.490;2022-11-15T10:11:31;7.28;;;3.83;;
31004;SDS011;17676;52.254;4.490;2022-11-15T10:13:58;7.93;;;3.65;;
31004;SDS011;17676;52.254;4.490;2022-11-15T10:16:32;7.10;;;3.17;;
31004;SDS011;17676;52.254;4.490;2022-11-15T10:19:10;8.52;;;3.28;;
31004;SDS011;17676;52.254;4.490;2022-11-15T10:24:12;10.98;;;3.50;;
31004;SDS011;17676;52.254;4.490;2022-11-15T10:26:38;8.45;;;2.80;;
31004;SDS011;17676;52.254;4.490;2022-11-15T10:29:04;10.95;;;3.22;;
31004;SDS011;17676;52.254;4.490;2022-11-15T10:31:30;7.57;;;3.08;;
31004;SDS011;17676;52.254;4.490;2022-11-15T10:33:59;4.28;;;2.95;;
31004;SDS011;17676;52.254;4.490;2022-11-15T10:36:31;5.18;;;3.08;;
31004;SDS011;17676;52.254;4.490;2022-11-15T10:38:57;5.75;;;2.30;;
31004;SDS011;17676;52.254;4.490;2022-11-15T10:46:32;4.63;;;2.65;;
31004;SDS011;17676;52.254;4.490;2022-11-15T10:49:20;4.70;;;2.03;;
31004;SDS011;17676;52.254;4.490;2022-11-15T10:51:47;7.22;;;1.85;;
31004;SDS011;17676;52.254;4.490;2022-11-15T10:54:13;5.20;;;1.33;;
31004;SDS011;17676;52.254;4.490;2022-11-15T10:56:40;8.32;;;1.80;;
31004;SDS011;17676;52.254;4.490;2022-11-15T10:59:12;4.35;;;1.75;;
31004;SDS011;17676;52.254;4.490;2022-11-15T11:01:45;5.95;;;1.40;;
31004;SDS011;17676;52.254;4.490;2022-11-15T11:04:11;6.57;;;1.38;;
31004;SDS011;17676;52.254;4.490;2022-11-15T11:09:32;8.07;;;1.27;;
31004;SDS011;17676;52.254;4.490;2022-11-15T11:11:57;5.25;;;1.30;;
31004;SDS011;17676;52.254;4.490;2022-11-15T11:14:26;7.25;;;1.38;;
31004;SDS011;17676;52.254;4.490;2022-11-15T11:21:53;5.20;;;0.70;;
31004;SDS011;17676;52.254;4.490;2022-11-15T11:30:08;6.43;;;1.20;;
31004;SDS011;17676;52.254;4.490;2022-11-15T11:32:40;2.50;;;0.73;;
31004;SDS011;17676;52.254;4.490;2022-11-15T11:40:15;3.20;;;0.93;;
31004;SDS011;17676;52.254;4.490;2022-11-15T11:42:47;5.43;;;0.90;;
31004;SDS011;17676;52.254;4.490;2022-11-15T11:45:18;5.60;;;1.15;;
31004;SDS011;17676;52.254;4.490;2022-11-15T11:47:57;6.65;;;0.68;;
31004;SDS011;17676;52.254;4.490;2022-11-15T11:50:26;5.68;;;1.02;;
31004;SDS011;17676;52.254;4.490;2022-11-15T11:55:19;4.65;;;0.47;;
31004;SDS011;17676;52.254;4.490;2022-11-15T11:57:47;6.03;;;0.55;;
31004;SDS011;17676;52.254;4.490;2022-11-15T12:03:32;8.52;;;0.90;;
31004;SDS011;17676;52.254;4.490;2022-11-15T12:05:30;3.95;;;0.73;;
31004;SDS011;17676;52.254;4.490;2022-11-15T12:10:54;4.00;;;0.75;;
31004;SDS011;17676;52.254;4.490;2022-11-15T12:13:24;8.35;;;0.90;;
31004;SDS011;17676;52.254;4.490;2022-11-15T12:15:53;5.30;;;0.30;;
31004;SDS011;17676;52.254;4.490;2022-11-15T12:18:21;4.65;;;0.40;;
31004;SDS011;17676;52.254;4.490;2022-11-15T12:20:50;7.25;;;0.60;;
31004;SDS011;17676;52.254;4.490;2022-11-15T12:23:19;5.70;;;0.60;;
31004;SDS011;17676;52.254;4.490;2022-11-15T12:28:41;3.70;;;0.77;;
31004;SDS011;17676;52.254;4.490;2022-11-15T12:31:10;3.85;;;0.70;;
31004;SDS011;17676;52.254;4.490;2022-11-15T12:33:41;6.13;;;0.93;;
31004;SDS011;17676;52.254;4.490;2022-11-15T12:41:16;8.68;;;1.17;;
31004;SDS011;17676;52.254;4.490;2022-11-15T12:43:42;3.58;;;0.85;;
31004;SDS011;17676;52.254;4.490;2022-11-15T12:59:47;3.63;;;0.63;;
31004;SDS011;17676;52.254;4.490;2022-11-15T13:02:25;4.00;;;0.50;;
31004;SDS011;17676;52.254;4.490;2022-11-15T13:04:53;3.55;;;0.68;;
31004;SDS011;17676;52.254;4.490;2022-11-15T13:17:38;8.07;;;0.38;;
31004;SDS011;17676;52.254;4.490;2022-11-15T13:28:01;6.43;;;0.20;;
31004;SDS011;17676;52.254;4.490;2022-11-15T13:30:27;3.85;;;0.30;;
31004;SDS011;17676;52.254;4.490;2022-11-15T13:32:54;7.80;;;0.50;;
31004;SDS011;17676;52.254;4.490;2022-11-15T13:35:20;4.05;;;0.22;;
31004;SDS011;17676;52.254;4.490;2022-11-15T13:37:46;8.77;;;0.50;;
31004;SDS011;17676;52.254;4.490;2022-11-15T13:42:49;5.57;;;0.30;;
31004;SDS011;17676;52.254;4.490;2022-11-15T13:45:15;2.67;;;0.20;;
31004;SDS011;17676;52.254;4.490;2022-11-15T13:47:41;3.65;;;0.30;;
31004;SDS011;17676;52.254;4.490;2022-11-15T13:50:10;6.18;;;0.55;;
31004;SDS011;17676;52.254;4.490;2022-11-15T13:52:35;3.80;;;0.35;;
31004;SDS011;17676;52.254;4.490;2022-11-15T13:57:35;3.50;;;0.50;;
31004;SDS011;17676;52.254;4.490;2022-11-15T14:00:05;22.55;;;1.83;;
31004;SDS011;17676;52.254;4.490;2022-11-15T14:02:31;3.08;;;0.40;;
31004;SDS011;17676;52.254;4.490;2022-11-15T14:07:26;3.65;;;0.20;;
31004;SDS011;17676;52.254;4.490;2022-11-15T14:09:52;6.00;;;0.65;;
31004;SDS011;17676;52.254;4.490;2022-11-15T14:12:22;8.20;;;0.30;;
31004;SDS011;17676;52.254;4.490;2022-11-15T14:14:48;4.05;;;0.30;;
31004;SDS011;17676;52.254;4.490;2022-11-15T14:17:20;4.93;;;0.25;;
31004;SDS011;17676;52.254;4.490;2022-11-15T14:19:48;4.78;;;0.20;;
31004;SDS011;17676;52.254;4.490;2022-11-15T14:22:20;3.50;;;0.20;;
31004;SDS011;17676;52.254;4.490;2022-11-15T14:24:47;5.15;;;0.20;;
31004;SDS011;17676;52.254;4.490;2022-11-15T14:27:20;5.45;;;0.30;;
31004;SDS011;17676;52.254;4.490;2022-11-15T14:29:46;2.72;;;0.28;;
31004;SDS011;17676;52.254;4.490;2022-11-15T14:32:14;3.05;;;0.55;;
31004;SDS011;17676;52.254;4.490;2022-11-15T14:34:40;6.05;;;0.35;;
31004;SDS011;17676;52.254;4.490;2022-11-15T14:37:09;5.03;;;0.20;;
31004;SDS011;17676;52.254;4.490;2022-11-15T14:39:40;5.05;;;0.32;;
31004;SDS011;17676;52.254;4.490;2022-11-15T14:42:08;4.78;;;0.28;;
31004;SDS011;17676;52.254;4.490;2022-11-15T14:44:34;3.30;;;0.28;;
31004;SDS011;17676;52.254;4.490;2022-11-15T14:46:59;3.63;;;0.43;;
31004;SDS011;17676;52.254;4.490;2022-11-15T14:49:25;6.15;;;0.30;;
31004;SDS011;17676;52.254;4.490;2022-11-15T14:51:50;4.72;;;0.30;;
31004;SDS011;17676;52.254;4.490;2022-11-15T14:54:15;2.63;;;0.25;;
31004;SDS011;17676;52.254;4.490;2022-11-15T14:56:41;2.13;;;0.20;;
31004;SDS011;17676;52.254;4.490;2022-11-15T14:59:07;4.85;;;0.20;;
31004;SDS011;17676;52.254;4.490;2022-11-15T15:01:32;6.10;;;0.30;;
31004;SDS011;17676;52.254;4.490;2022-11-15T15:03:58;3.55;;;0.32;;
31004;SDS011;17676;52.254;4.490;2022-11-15T15:06:24;3.40;;;0.30;;
31004;SDS011;17676;52.254;4.490;2022-11-15T15:08:50;5.38;;;0.28;;
31004;SDS011;17676;52.254;4.490;2022-11-15T15:11:18;4.72;;;0.40;;
31004;SDS011;17676;52.254;4.490;2022-11-15T15:13:43;5.40;;;0.30;;
31004;SDS011;17676;52.254;4.490;2022-11-15T15:16:09;3.00;;;0.30;;
31004;SDS011;17676;52.254;4.490;2022-11-15T15:18:35;2.08;;;0.40;;
31004;SDS011;17676;52.254;4.490;2022-11-15T15:21:00;3.63;;;0.20;;
31004;SDS011;17676;52.254;4.490;2022-11-15T15:23:28;3.88;;;0.60;;
31004;SDS011;17676;52.254;4.490;2022-11-15T15:25:56;4.82;;;0.20;;
31004;SDS011;17676;52.254;4.490;2022-11-15T15:28:21;4.45;;;0.30;;
31004;SDS011;17676;52.254;4.490;2022-11-15T15:30:46;3.30;;;0.20;;
31004;SDS011;17676;52.254;4.490;2022-11-15T15:33:12;3.72;;;0.60;;
31004;SDS011;17676;52.254;4.490;2022-11-15T15:35:37;4.85;;;0.30;;
31004;SDS011;17676;52.254;4.490;2022-11-15T15:38:02;4.00;;;0.70;;
31004;SDS011;17676;52.254;4.490;2022-11-15T15:40:29;3.50;;;0.30;;
31004;SDS011;17676;52.254;4.490;2022-11-15T15:42:55;2.20;;;0.30;;
31004;SDS011;17676;52.254;4.490;2022-11-15T15:45:20;3.45;;;0.30;;
31004;SDS011;17676;52.254;4.490;2022-11-15T15:47:46;3.42;;;0.20;;
31004;SDS011;17676;52.254;4.490;2022-11-15T15:50:45;2.10;;;0.20;;
31004;SDS011;17676;52.254;4.490;2022-11-15T15:53:03;1.75;;;0.40;;
31004;SDS011;17676;52.254;4.490;2022-11-15T15:55:29;2.00;;;0.38;;
31004;SDS011;17676;52.254;4.490;2022-11-15T15:57:54;3.95;;;0.40;;
31004;SDS011;17676;52.254;4.490;2022-11-15T16:00:21;2.72;;;0.40;;
31004;SDS011;17676;52.254;4.490;2022-11-15T16:02:48;3.90;;;0.35;;
31004;SDS011;17676;52.254;4.490;2022-11-15T16:05:13;3.67;;;0.45;;
31004;SDS011;17676;52.254;4.490;2022-11-15T16:07:39;4.30;;;0.30;;
31004;SDS011;17676;52.254;4.490;2022-11-15T16:10:15;4.15;;;0.30;;
31004;SDS011;17676;52.254;4.490;2022-11-15T16:12:41;5.07;;;0.40;;
31004;SDS011;17676;52.254;4.490;2022-11-15T16:15:07;3.88;;;0.40;;
31004;SDS011;17676;52.254;4.490;2022-11-15T16:17:33;3.60;;;0.50;;
31004;SDS011;17676;52.254;4.490;2022-11-15T16:19:59;3.75;;;0.40;;
31004;SDS011;17676;52.254;4.490;2022-11-15T16:22:24;3.17;;;0.45;;
31004;SDS011;17676;52.254;4.490;2022-11-15T16:24:50;5.18;;;0.73;;
31004;SDS011;17676;52.254;4.490;2022-11-15T16:27:16;6.50;;;2.15;;
31004;SDS011;17676;52.254;4.490;2022-11-15T16:29:42;3.67;;;0.82;;
31004;SDS011;17676;52.254;4.490;2022-11-15T16:32:07;6.55;;;0.63;;
31004;SDS011;17676;52.254;4.490;2022-11-15T16:34:32;2.67;;;0.50;;
31004;SDS011;17676;52.254;4.490;2022-11-15T16:36:59;4.65;;;0.40;;